Berenda, California
Current Conditions -  °F | °C
As of 10:53 AM on Tuesday 21 Oct 2014 (Local Time) from KMAE Reporting Station
Clear Clear  
Wind Chill: 65°   Ceiling: Unl
Heat Index: 65°   Visibility: 10mi
Dew Point: 45°   Wind: 13mph
Humidity: 48%   Direction: 320°NW
Pressure: 30.07"   Gusts: NA
Location:  36.9046°N, 120.172°W
Report Text: KMAE 211753Z AUTO 32011KT 10SM CLR 18/07 A3007 RMK AO2 SLP181 T01830072 10183 20111 50002
Loading
Personal Weather Stations






























Interactive Weather Map
Tropical Storm Tracking
New forecast layout! Learn more

10-Day Weather Forecast

Advertisements
Track Severe Weather on mobile